Kezdőlap
METAR-TAF:

METAR-TAF

Repülőterek :

Wattay nemzetközi repülőtér

Vientián, Laosz

földrajzi szélesség: 17-57N, földrajzi hosszúság: 102-34E, magasság: 171 m

Jelenlegi meteorológiai megfigyelések

A jelentés 15 perccel ezelõtt készült, 08:30 UTC
Délkeleti szél 6 kt
Hőmérséklet 29°C
Páratartalom 37%
Légköri nyomás 1015 hPa
Látótávolság: 8000 m
Szórványos felhőzet 20000 lábon

METAR: VLVT 130830Z 14006KT 8000 SCT200 29/13 Q1015 NOSIG

Idő: 15:45 (08:45 UTC)

Előrejelzés

A jelentés 3 órával és 45 perccel ezelõtt készült, 05:00 UTC
Az előrejelzés 13-én 06 óra UTC és 14-én 06 óra UTC között érvényes
Észak-északnyugati szél 4 kt
Látótávolság: 8000 m
Kevés felhő 5000 lábon

TAF: VLVT 130500Z 1306/1406 34004KT 8000 FEW050

Meteorológiai megfigyelések és előrejelzések több, mint 4000 repülőtéren (METAR és TAF jelentéseket).

A térképen piros és sárga pontok jelzik az elérhető meteorológiai állomásokat.

Mozgassa az egeret a pont fölött, hogy megjelenjen az állomás neve.

Azután kattintson az időjárási megfigyelések és előrejelzések megtekintéséhez.

A térkép megváltoztatása: kattintson a fekete keresztel jelölt zöld gombra ráközelítéshez, a vonallal jelölt zöld gombra távolításhoz, vagy a zöld nyilakra a szomszédos térképek eléréséhez.


METAR-TAF: